Time;durP1;ratioP1;P1;durP2;ratioP2;P2;SDS_P1;SDS_P2;PMS_P1;PMS_P2;Temp;Humidity;BMP_temperature;BMP_pressure;BME280_temperature;BME280_humidity;BME280_pressure;Samples;Min_cycle;Max_cycle;Signal;HPM_P1;HPM_P2
2022/05/17 04:11:21;;;;;;;4.83;3.37;;;17.20;99.90;;;;;;6066630;23;20963;-79
2022/05/17 04:13:49;;;;;;;4.22;3.15;;;17.20;99.90;;;;;;4988824;28;20106;-82
2022/05/17 04:16:36;;;;;;;7.10;3.33;;;17.20;99.90;;;;;;5008571;28;20033;-80
2022/05/17 04:19:04;;;;;;;3.50;2.80;;;17.20;99.90;;;;;;4976008;28;20037;-81
2022/05/17 04:21:33;;;;;;;4.28;2.72;;;17.20;99.90;;;;;;4994704;28;20021;-81
2022/05/17 04:24:01;;;;;;;5.05;2.92;;;17.30;99.90;;;;;;5010059;28;20130;-81
2022/05/17 04:26:27;;;;;;;6.13;2.97;;;17.20;99.90;;;;;;4991152;28;20029;-81
2022/05/17 04:28:54;;;;;;;4.50;2.78;;;17.20;99.90;;;;;;5001695;28;20041;-81
2022/05/17 04:31:25;;;;;;;4.97;2.80;;;17.20;99.90;;;;;;4994743;28;20019;-82
2022/05/17 04:33:54;;;;;;;6.05;2.95;;;17.20;99.90;;;;;;4994961;28;20003;-81
2022/05/17 04:36:21;;;;;;;3.85;2.90;;;17.20;99.90;;;;;;4995983;28;20121;-82
2022/05/17 04:38:49;;;;;;;4.28;2.20;;;17.20;99.90;;;;;;4994973;28;20018;-81
2022/05/17 04:41:27;;;;;;;4.47;2.60;;;17.00;99.90;;;;;;5011561;28;20045;-82
2022/05/17 04:43:53;;;;;;;7.13;2.78;;;17.10;99.90;;;;;;4987949;28;20034;-80
2022/05/17 04:46:21;;;;;;;3.40;2.40;;;17.10;99.90;;;;;;4989434;28;20032;-81
2022/05/17 04:52:13;;;;;;;5.35;2.80;;;17.10;99.90;;;;;;5005233;28;20098;-81
2022/05/17 04:54:42;;;;;;;3.53;2.65;;;17.10;99.90;;;;;;5004926;28;20050;-80
2022/05/17 04:57:09;;;;;;;4.95;2.60;;;17.10;99.90;;;;;;5006206;28;20010;-80
2022/05/17 04:59:40;;;;;;;5.68;3.00;;;17.10;99.90;;;;;;5002572;28;20030;-80
2022/05/17 05:02:06;;;;;;;3.83;2.60;;;17.00;99.90;;;;;;4972498;28;20049;-79
2022/05/17 05:04:31;;;;;;;5.10;2.53;;;17.10;99.90;;;;;;4992737;28;20022;-80
2022/05/17 05:06:58;;;;;;;3.33;2.85;;;17.10;99.90;;;;;;5003501;28;20022;-81
2022/05/17 05:09:27;;;;;;;4.07;2.92;;;17.10;99.90;;;;;;4986045;28;20040;-80
2022/05/17 05:12:01;;;;;;;5.55;2.92;;;17.10;99.90;;;;;;4982015;28;20055;-81
2022/05/17 05:14:42;;;;;;;4.05;2.60;;;17.10;99.90;;;;;;5006153;28;20097;-82
2022/05/17 05:17:34;;;;;;;6.18;2.60;;;17.20;99.90;;;;;;4987954;28;20026;-80
2022/05/17 05:20:08;;;;;;;4.32;2.83;;;17.20;99.90;;;;;;4979963;28;20124;-80
2022/05/17 05:22:39;;;;;;;3.17;2.60;;;17.30;99.90;;;;;;4999013;28;20026;-81
2022/05/17 05:26:18;;;;;;;3.00;2.55;;;17.50;99.90;;;;;;5009487;28;20055;-81
2022/05/17 05:29:22;;;;;;;4.90;3.03;;;17.50;99.90;;;;;;5003916;28;20030;-81
2022/05/17 05:32:09;;;;;;;5.68;2.95;;;17.60;99.90;;;;;;5011673;28;20033;-81
2022/05/17 05:34:34;;;;;;;6.07;2.97;;;17.70;99.90;;;;;;5005135;28;20041;-80
2022/05/17 05:37:16;;;;;;;4.07;2.83;;;17.70;99.90;;;;;;4992794;28;20026;-82
2022/05/17 05:39:43;;;;;;;6.00;3.17;;;17.60;99.90;;;;;;5008160;28;20023;-81
2022/05/17 05:47:20;;;;;;;4.70;3.65;;;17.20;99.90;;;;;;5659240;23;20058;-80
2022/05/17 05:49:53;;;;;;;5.40;3.00;;;17.20;99.90;;;;;;4975375;28;20022;-80
2022/05/17 05:52:33;;;;;;;4.22;3.13;;;17.20;99.90;;;;;;4987964;28;20045;-80
2022/05/17 05:55:45;;;;;;;4.40;3.30;;;17.40;99.90;;;;;;5005180;28;20046;-82
2022/05/17 05:58:20;;;;;;;6.03;3.28;;;17.50;99.90;;;;;;4952515;29;20047;-80
2022/05/17 06:01:52;;;;;;;5.22;3.20;;;17.50;99.90;;;;;;4928885;29;20046;-81
2022/05/17 06:05:06;;;;;;;5.15;3.80;;;17.60;99.90;;;;;;4934580;29;20012;-82
2022/05/17 06:08:45;;;;;;;7.57;3.40;;;17.70;99.90;;;;;;4913535;29;20053;-81
2022/05/17 06:11:55;;;;;;;6.72;3.67;;;17.70;99.90;;;;;;4906280;29;20040;-81
2022/05/17 06:14:21;;;;;;;5.85;3.60;;;17.60;99.90;;;;;;4966745;28;20026;-81
2022/05/17 06:16:51;;;;;;;;;;;17.60;99.90;;;;;;4979543;28;20023;-81
2022/05/17 06:19:23;;;;;;;6.10;3.42;;;17.50;99.90;;;;;;4966880;28;19916;-81
2022/05/17 06:22:02;;;;;;;4.55;3.40;;;17.60;99.90;;;;;;4981355;28;20033;-80
2022/05/17 06:24:30;;;;;;;5.57;3.67;;;17.70;99.90;;;;;;4961554;28;20034;-81
2022/05/17 06:31:00;;;;;;;5.25;3.83;;;17.90;99.90;;;;;;4941736;29;20052;-82
2022/05/17 06:33:49;;;;;;;5.40;4.13;;;17.90;99.90;;;;;;4942150;29;20044;-81
2022/05/17 06:37:20;;;;;;;6.03;3.63;;;18.10;99.90;;;;;;4950274;29;20023;-82
2022/05/17 06:40:25;;;;;;;6.40;4.22;;;17.10;99.90;;;;;;4931211;29;20089;-82
2022/05/17 06:46:41;;;;;;;5.38;4.03;;;18.60;99.90;;;;;;4922252;29;20065;-81
2022/05/17 06:49:14;;;;;;;5.88;4.28;;;19.00;99.90;;;;;;4906457;29;20056;-81
2022/05/17 06:51:45;;;;;;;4.43;3.92;;;19.10;99.90;;;;;;4916593;29;20039;-81
2022/05/17 06:55:03;;;;;;;4.45;3.53;;;19.20;99.90;;;;;;4922536;29;20508;-81
2022/05/17 06:58:07;;;;;;;6.10;4.38;;;19.10;99.90;;;;;;4925109;29;20025;-80
2022/05/17 07:00:43;;;;;;;5.00;3.88;;;19.10;99.90;;;;;;4966030;28;20045;-81
2022/05/17 07:03:10;;;;;;;5.82;4.30;;;19.10;99.90;;;;;;4952020;28;20026;-75
2022/05/17 07:05:37;;;;;;;7.15;4.10;;;19.00;99.90;;;;;;4930882;28;20110;-75
2022/05/17 07:08:05;;;;;;;5.55;4.40;;;19.00;99.90;;;;;;4921163;28;20054;-76
2022/05/17 07:13:17;;;;;;;6.38;5.32;;;19.30;99.90;;;;;;4930713;28;20093;-77
2022/05/17 07:15:48;;;;;;;6.43;4.63;;;19.40;99.90;;;;;;4915774;28;20540;-77
2022/05/17 07:18:20;;;;;;;7.00;4.80;;;19.40;99.90;;;;;;4927811;28;20567;-78
2022/05/17 07:20:52;;;;;;;6.10;4.50;;;19.50;99.90;;;;;;4912306;28;20019;-77
2022/05/17 07:23:19;;;;;;;4.95;3.95;;;19.60;99.90;;;;;;4906951;28;20046;-78
2022/05/17 07:25:47;;;;;;;4.55;3.92;;;19.90;99.90;;;;;;4925602;28;20047;-77
2022/05/17 07:28:19;;;;;;;6.30;4.18;;;20.00;99.90;;;;;;4927708;28;20111;-78
2022/05/17 07:30:47;;;;;;;5.05;3.72;;;20.20;99.90;;;;;;4915372;28;20097;-77
2022/05/17 07:33:13;;;;;;;3.88;3.38;;;20.30;99.90;;;;;;4925248;28;20050;-78
2022/05/17 07:46:35;;;;;;;5.97;3.70;;;20.80;99.90;;;;;;4929956;28;20111;-78
2022/05/17 07:49:01;;;;;;;4.75;3.85;;;21.10;99.90;;;;;;4908255;28;20591;-78
2022/05/17 07:51:27;;;;;;;5.25;3.90;;;21.20;99.90;;;;;;4914707;28;20035;-78
2022/05/17 07:53:54;;;;;;;;;;;21.40;99.90;;;;;;4927924;28;20020;-78
2022/05/17 07:56:21;;;;;;;7.93;3.80;;;21.60;99.90;;;;;;4912880;28;20066;-78
2022/05/17 07:58:46;;;;;;;4.75;4.03;;;21.90;99.90;;;;;;4907663;28;20020;-78
2022/05/17 08:01:12;;;;;;;9.18;5.43;;;21.90;99.90;;;;;;4909037;28;20030;-77
2022/05/17 08:03:38;;;;;;;4.72;4.22;;;21.80;99.90;;;;;;4924738;28;20024;-78
2022/05/17 08:06:06;;;;;;;5.65;4.43;;;21.60;99.90;;;;;;4911502;28;20027;-78
2022/05/17 08:08:32;;;;;;;5.38;4.28;;;21.60;99.90;;;;;;4936045;28;20031;-77
2022/05/17 08:10:57;;;;;;;6.57;4.10;;;21.40;99.90;;;;;;4909041;28;20031;-77
2022/05/17 08:13:29;;;;;;;6.80;4.63;;;21.40;99.90;;;;;;4921389;28;20036;-79
2022/05/17 08:16:03;;;;;;;8.63;4.60;;;21.20;99.90;;;;;;4910850;28;20028;-78
2022/05/17 08:18:29;;;;;;;7.13;4.60;;;20.90;99.90;;;;;;4927331;28;20020;-78
2022/05/17 08:21:02;;;;;;;4.70;4.07;;;20.80;99.90;;;;;;4923945;28;20110;-78
2022/05/17 08:23:31;;;;;;;5.30;4.65;;;20.60;99.90;;;;;;4936095;28;20066;-77
2022/05/17 08:28:52;;;;;;;8.23;4.70;;;20.30;99.90;;;;;;4927929;28;20079;-78
2022/05/17 08:31:20;;;;;;;9.95;4.85;;;20.30;99.90;;;;;;4923675;28;20023;-78
2022/05/17 08:33:51;;;;;;;5.20;4.13;;;20.30;99.90;;;;;;4935717;28;20019;-77
2022/05/17 08:36:17;;;;;;;6.10;4.07;;;20.30;99.90;;;;;;4907889;28;20023;-78
2022/05/17 08:38:59;;;;;;;5.90;3.95;;;20.40;99.90;;;;;;4920341;28;20041;-77
2022/05/17 08:41:36;;;;;;;4.55;4.07;;;20.50;99.90;;;;;;4924877;28;20089;-77
2022/05/17 08:44:15;;;;;;;4.18;3.78;;;20.20;99.90;;;;;;4930274;28;20603;-77
2022/05/17 08:47:06;;;;;;;8.93;3.88;;;20.00;99.90;;;;;;4910507;28;20027;-78
2022/05/17 08:50:07;;;;;;;4.30;3.40;;;19.80;99.90;;;;;;4929014;28;20595;-78
2022/05/17 08:52:37;;;;;;;5.65;3.45;;;19.60;99.90;;;;;;4910835;29;20027;-77
2022/05/17 08:55:10;;;;;;;4.18;3.13;;;19.70;99.90;;;;;;4925861;28;20011;-77
2022/05/17 08:57:54;;;;;;;5.70;3.22;;;19.80;99.90;;;;;;4930174;28;20532;-78
2022/05/17 09:00:42;;;;;;;6.03;3.17;;;19.80;99.90;;;;;;4926901;28;20119;-77
2022/05/17 09:03:48;;;;;;;4.32;3.10;;;20.00;99.90;;;;;;4916938;28;20035;-77
2022/05/17 09:06:50;;;;;;;3.67;2.85;;;20.50;99.90;;;;;;4921365;28;20081;-78
2022/05/17 09:09:23;;;;;;;3.45;3.05;;;20.60;99.90;;;;;;4902109;28;20032;-78
2022/05/17 09:12:34;;;;;;;6.65;3.22;;;20.70;99.90;;;;;;4924317;28;20047;-77
2022/05/17 09:15:05;;;;;;;4.75;3.33;;;20.90;99.90;;;;;;4939457;28;20695;-77
2022/05/17 09:17:34;;;;;;;4.68;3.00;;;21.50;99.90;;;;;;4911958;28;20468;-78
2022/05/17 09:20:26;;;;;;;3.55;2.88;;;22.30;99.90;;;;;;4926188;28;20008;-78
2022/05/17 09:22:54;;;;;;;3.28;2.58;;;22.80;99.90;;;;;;4910854;28;20035;-79
2022/05/17 09:26:02;;;;;;;3.28;2.70;;;23.10;99.90;;;;;;4902462;28;20038;-79
2022/05/17 09:28:50;;;;;;;2.83;2.35;;;23.90;99.00;;;;;;4906705;28;20031;-79
2022/05/17 09:31:28;;;;;;;4.88;2.30;;;25.20;97.40;;;;;;4905942;28;20186;-79
2022/05/17 09:34:01;;;;;;;5.10;2.75;;;26.00;94.90;;;;;;4914567;28;20132;-79
2022/05/17 09:36:44;;;;;;;4.82;2.60;;;26.60;93.60;;;;;;4928634;28;20182;-78
2022/05/17 09:39:20;;;;;;;5.95;2.95;;;27.20;92.30;;;;;;4922861;28;20082;-79
2022/05/17 09:41:57;;;;;;;5.65;3.28;;;27.00;91.50;;;;;;4927130;28;20489;-79
2022/05/17 09:44:26;;;;;;;4.20;2.90;;;26.60;91.70;;;;;;4907028;28;20042;-79
2022/05/17 09:46:56;;;;;;;6.13;3.03;;;26.20;92.20;;;;;;4930159;28;20085;-79
2022/05/17 09:52:32;;;;;;;5.28;3.60;;;25.30;94.10;;;;;;4928501;28;20039;-79
2022/05/17 09:55:13;;;;;;;5.45;4.07;;;24.40;96.90;;;;;;4912856;28;20551;-79
2022/05/17 09:57:53;;;;;;;5.30;3.72;;;23.70;98.00;;;;;;4909362;28;20409;-79
2022/05/17 10:00:26;;;;;;;5.90;4.60;;;23.00;99.90;;;;;;4921372;28;20633;-79
2022/05/17 10:03:12;;;;;;;6.22;4.50;;;22.20;99.90;;;;;;4916382;28;20033;-79
2022/05/17 10:05:43;;;;;;;6.32;4.85;;;21.80;99.90;;;;;;4909064;28;20147;-79
2022/05/17 10:08:14;;;;;;;5.15;3.97;;;21.50;99.90;;;;;;4941439;28;20085;-79
2022/05/17 10:10:45;;;;;;;6.20;4.82;;;21.10;99.90;;;;;;4930369;28;20047;-77
2022/05/17 10:13:35;;;;;;;5.85;4.55;;;20.80;99.90;;;;;;4928363;28;20065;-77
2022/05/17 10:16:28;;;;;;;6.93;4.78;;;20.70;99.90;;;;;;4926406;28;20035;-77
2022/05/17 10:19:00;;;;;;;6.07;4.65;;;20.70;99.90;;;;;;4934777;28;20034;-77
2022/05/17 10:21:34;;;;;;;5.05;3.88;;;21.10;99.90;;;;;;4911293;28;20023;-79
2022/05/17 10:24:08;;;;;;;5.50;3.35;;;21.80;99.90;;;;;;4923797;28;20028;-78
2022/05/17 10:26:39;;;;;;;6.72;3.75;;;22.50;99.90;;;;;;4937418;28;20094;-78
2022/05/17 10:29:26;;;;;;;4.43;3.65;;;22.70;99.90;;;;;;4929687;28;20028;-79
2022/05/17 10:31:56;;;;;;;4.60;3.67;;;22.60;99.90;;;;;;4931821;28;20056;-79
2022/05/17 10:34:33;;;;;;;4.70;4.20;;;22.30;99.90;;;;;;4914971;28;20107;-79
2022/05/17 10:37:33;;;;;;;7.43;4.53;;;21.80;99.90;;;;;;4925953;28;20463;-76
2022/05/17 10:40:26;;;;;;;6.07;4.75;;;21.30;99.90;;;;;;4898591;28;20035;-77
2022/05/17 10:42:54;;;;;;;5.85;5.25;;;21.20;99.90;;;;;;4911412;28;20127;-77
2022/05/17 10:45:32;;;;;;;7.13;4.75;;;21.00;99.90;;;;;;4929147;28;20632;-77
2022/05/17 10:48:25;;;;;;;4.55;3.95;;;21.30;99.90;;;;;;4931249;28;20035;-77
2022/05/17 10:51:09;;;;;;;4.25;3.85;;;21.80;99.90;;;;;;4928665;28;20031;-78
2022/05/17 10:54:03;;;;;;;5.22;4.07;;;22.00;99.90;;;;;;4909104;28;20505;-78
2022/05/17 10:56:47;;;;;;;7.60;4.68;;;21.70;99.90;;;;;;4936447;28;20705;-77
2022/05/17 10:59:31;;;;;;;5.07;4.13;;;21.30;99.90;;;;;;4930684;28;20095;-79
2022/05/17 11:02:35;;;;;;;6.57;4.47;;;20.80;99.90;;;;;;4907793;28;20967;-76
2022/05/17 11:05:21;;;;;;;7.25;4.25;;;20.30;99.90;;;;;;4931632;28;20029;-74
2022/05/17 11:08:16;;;;;;;5.63;4.47;;;19.90;99.90;;;;;;4929698;28;20016;-73
2022/05/17 11:11:06;;;;;;;5.65;4.32;;;19.80;99.90;;;;;;4910020;28;20027;-74
2022/05/17 11:13:51;;;;;;;6.43;4.20;;;19.60;99.90;;;;;;4921978;28;20073;-74
2022/05/17 11:29:59;;;;;;;7.72;6.00;;;18.60;99.90;;;;;;4923514;28;20157;-77
2022/05/17 11:32:28;;;;;;;7.25;5.30;;;18.70;99.90;;;;;;4912553;28;20027;-78
2022/05/17 11:35:23;;;;;;;7.85;5.57;;;18.80;99.90;;;;;;4940861;28;20027;-78
2022/05/17 11:37:51;;;;;;;6.35;5.60;;;19.00;99.90;;;;;;4905240;28;20433;-78
2022/05/17 11:40:47;;;;;;;8.13;5.50;;;19.30;99.90;;;;;;4934261;28;20114;-78
2022/05/17 11:43:41;;;;;;;5.90;5.20;;;19.70;99.90;;;;;;4915899;28;20338;-79
2022/05/17 11:46:28;;;;;;;8.00;6.00;;;20.10;99.90;;;;;;4925985;28;20024;-78
2022/05/17 11:48:59;;;;;;;7.03;5.95;;;20.40;99.90;;;;;;4942443;28;21153;-78
2022/05/17 11:51:32;;;;;;;7.88;6.90;;;20.50;99.90;;;;;;4903805;28;20035;-78
2022/05/17 11:54:00;;;;;;;8.80;5.60;;;20.50;99.90;;;;;;4934020;28;20027;-78
2022/05/17 11:56:33;;;;;;;6.88;5.55;;;20.50;99.90;;;;;;4929488;28;20473;-78
2022/05/17 11:59:08;;;;;;;5.78;4.97;;;20.40;99.90;;;;;;4930327;28;20063;-78
2022/05/17 12:01:37;;;;;;;8.77;5.53;;;20.50;99.90;;;;;;4932518;28;20133;-78
2022/05/17 12:04:36;;;;;;;5.82;5.22;;;20.60;99.90;;;;;;4918677;29;20066;-78
2022/05/17 12:07:25;;;;;;;6.25;4.75;;;20.50;99.90;;;;;;4946539;28;20050;-77
2022/05/17 12:09:55;;;;;;;7.35;5.10;;;20.30;99.90;;;;;;4931895;28;20085;-77
2022/05/17 12:12:43;;;;;;;8.85;6.32;;;20.20;99.90;;;;;;4929348;28;20035;-77
2022/05/17 12:15:26;;;;;;;9.15;6.82;;;20.00;99.90;;;;;;4915556;28;20063;-78
2022/05/17 12:18:09;;;;;;;8.27;6.60;;;19.90;99.90;;;;;;4908832;28;20020;-77
2022/05/17 12:20:52;;;;;;;7.03;6.07;;;19.70;99.90;;;;;;4935390;28;20019;-77
2022/05/17 12:23:28;;;;;;;7.70;6.53;;;19.60;99.90;;;;;;4921587;28;20948;-77
2022/05/17 12:26:28;;;;;;;7.63;6.57;;;19.50;99.90;;;;;;4926244;28;20589;-78
2022/05/17 12:28:54;;;;;;;7.10;6.15;;;19.60;99.90;;;;;;4897757;28;20055;-77
2022/05/17 12:31:25;;;;;;;7.57;6.28;;;19.80;99.90;;;;;;4906440;28;20031;-77
2022/05/17 12:33:55;;;;;;;12.32;7.00;;;19.90;99.90;;;;;;4930451;28;20023;-78
2022/05/17 12:36:24;;;;;;;7.07;6.32;;;20.20;99.90;;;;;;4927073;28;20083;-78
2022/05/17 12:44:56;;;;;;;5.85;4.97;;;20.50;99.90;;;;;;4929353;28;20105;-78
2022/05/17 12:47:37;;;;;;;6.75;5.22;;;20.50;99.90;;;;;;4924663;28;20429;-79
2022/05/17 12:50:04;;;;;;;6.72;6.03;;;20.50;99.90;;;;;;4910708;29;20504;-78
2022/05/17 12:52:36;;;;;;;7.05;5.93;;;20.70;99.90;;;;;;4909690;28;20695;-74
2022/05/17 12:55:08;;;;;;;8.80;6.20;;;21.00;99.90;;;;;;4922380;28;20016;-74
2022/05/17 12:57:38;;;;;;;5.47;4.68;;;21.20;99.90;;;;;;4926638;28;20027;-74
2022/05/17 13:00:35;;;;;;;6.60;5.53;;;21.50;99.90;;;;;;4921780;28;20365;-74
2022/05/17 13:03:14;;;;;;;7.18;5.53;;;21.80;99.90;;;;;;4923807;28;20040;-74
2022/05/17 13:05:43;;;;;;;9.35;6.28;;;21.90;99.90;;;;;;4908645;28;20028;-74
2022/05/17 13:08:10;;;;;;;5.97;5.07;;;21.80;99.90;;;;;;4922930;28;20055;-74
2022/05/17 13:10:43;;;;;;;6.97;5.20;;;21.70;99.90;;;;;;4924811;28;20099;-74
2022/05/17 13:13:20;;;;;;;5.38;4.65;;;21.50;99.90;;;;;;4923423;28;20039;-74
2022/05/17 13:16:21;;;;;;;6.93;5.25;;;21.30;99.90;;;;;;4920124;28;20122;-75
2022/05/17 13:18:56;;;;;;;6.53;5.75;;;21.30;99.90;;;;;;4919583;28;20071;-74
2022/05/17 13:21:25;;;;;;;5.90;4.95;;;21.30;99.90;;;;;;4921774;28;20055;-75
2022/05/17 13:23:58;;;;;;;7.90;5.55;;;21.40;99.90;;;;;;4925663;28;20096;-74
2022/05/17 13:26:31;;;;;;;7.20;5.97;;;21.50;99.90;;;;;;4921949;28;20031;-78
2022/05/17 13:29:12;;;;;;;8.75;5.90;;;21.50;99.90;;;;;;4908286;28;20165;-78
2022/05/17 13:31:44;;;;;;;8.27;5.97;;;21.50;99.90;;;;;;4923918;28;20381;-77
2022/05/17 13:34:16;;;;;;;8.55;6.70;;;21.50;99.90;;;;;;4917288;28;20047;-79
2022/05/17 13:36:42;;;;;;;7.72;5.88;;;21.50;99.90;;;;;;4924850;28;20028;-74
2022/05/17 13:39:25;;;;;;;6.22;5.35;;;21.70;99.90;;;;;;4919479;28;20115;-75
2022/05/17 13:41:50;;;;;;;7.22;5.47;;;21.70;99.90;;;;;;4929670;28;20531;-74
2022/05/17 13:44:34;;;;;;;5.72;4.90;;;21.80;99.90;;;;;;4922777;28;20039;-74
2022/05/17 13:47:04;;;;;;;7.35;5.50;;;21.90;99.90;;;;;;4926795;28;20020;-74
2022/05/17 13:49:39;;;;;;;7.07;5.75;;;21.90;99.90;;;;;;4902471;28;20354;-74
2022/05/17 13:52:26;;;;;;;6.40;5.80;;;21.70;99.90;;;;;;4927804;28;20095;-74
2022/05/17 13:55:07;;;;;;;;;;;21.70;99.90;;;;;;4922631;28;20031;-75
2022/05/17 13:57:39;;;;;;;7.32;5.35;;;21.70;99.90;;;;;;4912722;29;19902;-75
2022/05/17 14:00:19;;;;;;;6.85;5.65;;;21.70;99.90;;;;;;4934237;28;20071;-74
2022/05/17 14:02:51;;;;;;;8.77;5.53;;;21.80;99.90;;;;;;4927374;28;20663;-74
2022/05/17 14:05:24;;;;;;;7.60;5.43;;;21.90;99.90;;;;;;4903132;28;20032;-75
2022/05/17 14:14:16;;;;;;;6.22;5.53;;;22.00;99.90;;;;;;4923568;28;20062;-74
2022/05/17 14:16:50;;;;;;;8.50;6.38;;;22.00;99.90;;;;;;4925756;28;20020;-74
2022/05/17 14:19:20;;;;;;;6.78;5.95;;;22.00;99.90;;;;;;4925684;28;20043;-74
2022/05/17 14:21:50;;;;;;;14.05;6.72;;;22.10;99.90;;;;;;4907829;28;20035;-75
2022/05/17 14:24:18;;;;;;;9.32;5.63;;;22.00;99.90;;;;;;4925057;28;20546;-74
2022/05/17 14:26:49;;;;;;;6.10;5.50;;;22.10;99.90;;;;;;4924964;28;20182;-75
2022/05/17 14:29:16;;;;;;;7.80;7.00;;;22.10;99.90;;;;;;4921779;28;20032;-74
2022/05/17 14:31:45;;;;;;;8.57;6.30;;;22.00;99.90;;;;;;4924297;28;20024;-75
2022/05/17 14:34:18;;;;;;;7.47;5.75;;;21.90;99.90;;;;;;4907155;28;20058;-74
2022/05/17 14:36:50;;;;;;;7.90;7.07;;;21.80;99.90;;;;;;4914015;28;20031;-75
2022/05/17 14:39:28;;;;;;;8.73;7.25;;;21.60;99.90;;;;;;4930101;28;20031;-75
2022/05/17 14:41:59;;;;;;;8.23;6.53;;;21.50;99.90;;;;;;4931502;28;20032;-75
2022/05/17 14:44:30;;;;;;;9.52;7.45;;;21.40;99.90;;;;;;4920945;28;20039;-75
2022/05/17 14:47:07;;;;;;;8.30;6.57;;;21.30;99.90;;;;;;4924682;28;20079;-74
2022/05/17 14:49:38;;;;;;;9.63;6.10;;;21.10;99.90;;;;;;4913216;29;20512;-75
2022/05/17 14:52:06;;;;;;;6.68;5.78;;;21.10;99.90;;;;;;4927769;28;20023;-75
2022/05/17 14:54:38;;;;;;;8.57;5.80;;;21.20;99.90;;;;;;4928528;28;20022;-75
2022/05/17 14:57:07;;;;;;;7.05;4.80;;;21.30;99.90;;;;;;4928419;28;20571;-74
2022/05/17 14:59:33;;;;;;;5.25;4.68;;;21.30;99.90;;;;;;4905726;29;20075;-74
2022/05/17 15:02:02;;;;;;;5.38;4.00;;;21.50;99.90;;;;;;4924132;28;20422;-75
2022/05/17 15:04:32;;;;;;;7.00;4.75;;;21.40;99.90;;;;;;4906520;28;20751;-74
2022/05/17 15:07:12;;;;;;;4.28;3.55;;;21.40;99.90;;;;;;4924915;28;20020;-75
2022/05/17 15:09:39;;;;;;;6.70;3.95;;;21.40;99.90;;;;;;4936869;28;20023;-74
2022/05/17 15:12:11;;;;;;;3.45;3.13;;;21.40;99.90;;;;;;4925521;28;20453;-75
2022/05/17 15:14:44;;;;;;;3.65;2.97;;;21.40;99.90;;;;;;4930388;28;20020;-74
2022/05/17 15:17:10;;;;;;;5.60;3.28;;;21.40;99.90;;;;;;4923043;28;20043;-74
2022/05/17 15:19:37;;;;;;;4.30;2.80;;;21.40;99.90;;;;;;4928023;28;20020;-74
2022/05/17 15:22:03;;;;;;;4.43;2.83;;;21.40;99.90;;;;;;4924087;28;20756;-74
2022/05/17 15:24:30;;;;;;;3.97;3.42;;;21.40;99.90;;;;;;4904758;28;21209;-74
2022/05/17 15:26:59;;;;;;;3.17;2.88;;;21.30;99.90;;;;;;4927228;28;20051;-74
2022/05/17 15:29:25;;;;;;;5.68;4.10;;;21.30;99.90;;;;;;4921481;28;20031;-74
2022/05/17 15:31:52;;;;;;;6.00;4.47;;;21.00;99.90;;;;;;4924933;28;20100;-74
2022/05/17 15:34:21;;;;;;;5.30;3.45;;;20.90;99.90;;;;;;4924967;28;20107;-75
2022/05/17 15:36:46;;;;;;;4.45;4.05;;;20.80;99.90;;;;;;4906435;28;20019;-74
2022/05/17 15:39:14;;;;;;;4.25;3.65;;;20.60;99.90;;;;;;4905234;28;20047;-75
2022/05/17 15:41:40;;;;;;;5.47;4.43;;;20.60;99.90;;;;;;4905973;28;20027;-74
2022/05/17 15:44:06;;;;;;;4.75;4.25;;;20.60;99.90;;;;;;4911685;28;20035;-74
2022/05/17 15:53:15;;;;;;;5.35;4.13;;;20.50;99.90;;;;;;4919086;28;20037;-74
2022/05/17 15:55:07;;;;;;;;;;;20.10;99.90;;;;;;4936725;28;20050;-79
2022/05/17 15:57:36;;;;;;;4.22;3.80;;;20.10;99.90;;;;;;4930744;28;20001;-78
2022/05/17 16:00:06;;;;;;;4.65;3.80;;;20.10;99.90;;;;;;4923506;28;20015;-79
2022/05/17 16:02:42;;;;;;;5.15;4.25;;;20.20;99.90;;;;;;4934872;28;20024;-79
2022/05/17 16:05:11;;;;;;;4.75;4.20;;;20.20;99.90;;;;;;4933948;28;20053;-78
2022/05/17 16:10:30;;;;;;;4.53;3.58;;;20.20;99.90;;;;;;4933511;28;20087;-79
2022/05/17 16:12:56;;;;;;;5.18;4.07;;;20.20;99.90;;;;;;4924882;28;20034;-78
2022/05/17 16:15:23;;;;;;;4.45;3.45;;;20.10;99.90;;;;;;4927145;28;20070;-78
2022/05/17 16:17:57;;;;;;;3.25;2.95;;;20.10;99.90;;;;;;4930831;28;20030;-79
2022/05/17 16:20:23;;;;;;;4.50;4.10;;;20.20;99.90;;;;;;4934798;28;20024;-79
2022/05/17 16:22:56;;;;;;;;;;;20.20;99.90;;;;;;4931475;28;20106;-78
2022/05/17 16:25:25;;;;;;;4.43;3.72;;;20.20;99.90;;;;;;4932370;28;19914;-78
2022/05/17 16:28:00;;;;;;;3.50;3.20;;;20.20;99.90;;;;;;4934944;28;20659;-79
2022/05/17 16:30:36;;;;;;;2.50;2.30;;;20.20;99.90;;;;;;4931155;28;20131;-80
2022/05/17 16:33:21;;;;;;;2.67;2.35;;;20.20;99.90;;;;;;4940729;28;20046;-80
2022/05/17 16:36:00;;;;;;;3.22;2.90;;;19.90;99.90;;;;;;4957492;28;20070;-80
2022/05/17 16:38:27;;;;;;;4.15;2.67;;;19.50;99.90;;;;;;4913256;28;20659;-72
2022/05/17 16:40:54;;;;;;;4.00;2.67;;;19.30;99.90;;;;;;4907899;28;20130;-74
2022/05/17 16:43:21;;;;;;;9.40;2.85;;;19.30;99.90;;;;;;4908939;28;20095;-74
2022/05/17 16:45:52;;;;;;;2.95;2.45;;;19.20;99.90;;;;;;4946540;28;20019;-79
2022/05/17 16:48:17;;;;;;;3.85;2.75;;;19.00;99.90;;;;;;4942117;28;20031;-78
2022/05/17 16:50:52;;;;;;;3.20;2.70;;;19.00;99.90;;;;;;4919766;28;20047;-79
2022/05/17 16:53:20;;;;;;;2.80;2.50;;;18.80;99.90;;;;;;4918042;28;20493;-78
2022/05/17 16:55:46;;;;;;;3.30;2.70;;;18.80;99.90;;;;;;4916454;28;20045;-78
2022/05/17 16:58:23;;;;;;;5.10;3.30;;;18.70;99.90;;;;;;4939833;28;20379;-78
2022/05/17 17:00:59;;;;;;;5.13;2.75;;;18.70;99.90;;;;;;4935714;28;20515;-79
2022/05/17 17:03:24;;;;;;;4.53;3.00;;;18.70;99.90;;;;;;4937255;28;20030;-78
2022/05/17 17:05:56;;;;;;;7.13;3.45;;;18.60;99.90;;;;;;4927446;28;20020;-79
2022/05/17 17:08:27;;;;;;;5.22;3.30;;;18.50;99.90;;;;;;4929152;28;20657;-79
2022/05/17 17:10:52;;;;;;;7.15;3.25;;;18.40;99.90;;;;;;4911001;28;20031;-78
2022/05/17 17:13:21;;;;;;;6.97;3.28;;;18.30;99.90;;;;;;4933566;28;20044;-75
2022/05/17 17:15:48;;;;;;;4.78;3.80;;;18.20;99.90;;;;;;4910391;28;20067;-75
2022/05/17 17:18:23;;;;;;;5.53;3.95;;;18.30;99.90;;;;;;4923580;28;20523;-75
2022/05/17 17:20:49;;;;;;;7.00;3.83;;;18.10;99.90;;;;;;4923532;28;20558;-78
2022/05/17 17:23:16;;;;;;;6.97;4.18;;;18.10;99.90;;;;;;4907761;28;20027;-75
2022/05/17 17:25:42;;;;;;;6.78;4.05;;;18.00;99.90;;;;;;4927490;28;20035;-74
2022/05/17 17:28:09;;;;;;;7.30;3.72;;;18.00;99.90;;;;;;4900888;28;20020;-74
2022/05/17 17:30:43;;;;;;;5.75;3.55;;;18.00;99.90;;;;;;4929853;28;20028;-74
2022/05/17 17:38:40;;;;;;;5.65;3.25;;;18.20;99.90;;;;;;4926078;28;20039;-74
2022/05/17 17:41:08;;;;;;;5.93;3.38;;;18.20;99.90;;;;;;4927022;28;20031;-74
2022/05/17 17:43:35;;;;;;;6.50;3.53;;;18.10;99.90;;;;;;4925483;28;20024;-74
2022/05/17 17:46:05;;;;;;;5.45;3.42;;;18.20;99.90;;;;;;4907072;28;20031;-74
2022/05/17 17:48:31;;;;;;;4.03;2.80;;;18.20;99.90;;;;;;4923994;28;20066;-75
2022/05/17 17:50:58;;;;;;;3.70;2.90;;;18.00;99.90;;;;;;4927473;28;20046;-74
2022/05/17 17:53:24;;;;;;;4.40;3.00;;;17.90;99.90;;;;;;4928998;28;20079;-74
2022/05/17 17:55:53;;;;;;;4.72;3.08;;;17.90;99.90;;;;;;4925706;28;20019;-74
2022/05/17 17:58:24;;;;;;;5.03;2.90;;;17.90;99.90;;;;;;4905137;28;20076;-74
2022/05/17 18:00:53;;;;;;;3.95;2.67;;;17.80;99.90;;;;;;4930599;28;20357;-76
2022/05/17 18:03:34;;;;;;;5.00;3.05;;;17.90;99.90;;;;;;4916377;28;20027;-83
2022/05/17 18:08:36;;;;;;;9.25;2.90;;;18.00;99.90;;;;;;5194806;23;20155;-79
2022/05/17 18:11:10;;;;;;;4.95;2.70;;;17.90;99.90;;;;;;5001340;28;20026;-81
2022/05/17 18:13:44;;;;;;;6.10;3.00;;;17.90;99.90;;;;;;4964174;28;20503;-78
2022/05/17 18:16:33;;;;;;;3.97;2.60;;;17.90;99.90;;;;;;4983531;28;20034;-81
2022/05/17 18:19:04;;;;;;;5.07;3.08;;;17.80;99.90;;;;;;4967650;28;20033;-79
2022/05/17 18:21:37;;;;;;;4.68;2.92;;;17.60;99.90;;;;;;4959439;28;20875;-78
2022/05/17 18:24:04;;;;;;;6.53;2.88;;;17.60;99.90;;;;;;4964595;28;20032;-74
2022/05/17 18:26:33;;;;;;;4.38;2.90;;;17.50;99.90;;;;;;4976512;28;20026;-77
2022/05/17 18:29:06;;;;;;;6.13;3.17;;;17.50;99.90;;;;;;4979400;28;20034;-78
2022/05/17 18:31:36;;;;;;;3.95;2.78;;;17.30;99.90;;;;;;4974245;28;20022;-77
2022/05/17 18:34:01;;;;;;;4.75;2.70;;;17.10;99.90;;;;;;4980584;28;20010;-76
2022/05/17 18:36:33;;;;;;;5.93;2.80;;;16.90;99.90;;;;;;4958005;28;20036;-77
2022/05/17 18:39:02;;;;;;;6.05;3.20;;;16.90;99.90;;;;;;4963285;28;20084;-77
2022/05/17 18:41:30;;;;;;;7.82;2.90;;;16.90;99.90;;;;;;4975543;28;20034;-77
2022/05/17 18:43:55;;;;;;;7.72;3.30;;;16.80;99.90;;;;;;4976461;28;20030;-77
2022/05/17 18:46:38;;;;;;;;;;;;;;;;;;;;;
2022/05/17 18:49:12;;;;;;;5.45;3.05;;;16.70;99.90;;;;;;4976786;28;20770;-77
2022/05/17 18:51:43;;;;;;;6.82;3.35;;;16.70;99.90;;;;;;4955192;28;20104;-78
2022/05/17 18:54:13;;;;;;;5.43;3.28;;;16.70;99.90;;;;;;4958512;28;20018;-77
2022/05/17 18:56:39;;;;;;;8.93;3.53;;;16.60;99.90;;;;;;4973713;28;20026;-78
2022/05/17 18:59:06;;;;;;;4.60;3.10;;;16.60;99.90;;;;;;4962470;28;20236;-78